Time;durP1;ratioP1;P1;durP2;ratioP2;P2;SDS_P1;SDS_P2;PMS_P1;PMS_P2;Temp;Humidity;BMP_temperature;BMP_pressure;BME280_temperature;BME280_humidity;BME280_pressure;Samples;Min_cycle;Max_cycle;Signal;HPM_P1;HPM_P2
2023/08/21 00:02:16;;;;;;;4.95;0.70;;;;;;;;;;5117403;27;40288;-70
2023/08/21 00:04:46;;;;;;;0.90;0.60;;;;;;;;;;5128672;27;43315;-70
2023/08/21 00:07:14;;;;;;;0.70;0.50;;;;;;;;;;5128127;27;40286;-70
2023/08/21 00:09:42;;;;;;;3.65;0.73;;;;;;;;;;5127982;27;42118;-70
2023/08/21 00:12:10;;;;;;;1.52;0.80;;;;;;;;;;5122309;27;43057;-70
2023/08/21 00:14:39;;;;;;;0.95;0.50;;;;;;;;;;5110915;27;40817;-70
2023/08/21 00:17:07;;;;;;;1.83;0.60;;;;;;;;;;5110533;27;41510;-70
2023/08/21 00:19:35;;;;;;;2.05;0.85;;;;;;;;;;5110416;27;42016;-70
2023/08/21 00:22:05;;;;;;;2.00;0.60;;;;;;;;;;5110844;27;41010;-70
2023/08/21 00:24:33;;;;;;;1.27;0.63;;;;;;;;;;5109647;27;42608;-70
2023/08/21 00:27:02;;;;;;;1.20;0.47;;;;;;;;;;5111167;27;41257;-69
2023/08/21 00:29:30;;;;;;;0.70;0.60;;;;;;;;;;5108989;28;40244;-70
2023/08/21 00:31:58;;;;;;;0.98;0.50;;;;;;;;;;5125973;27;40734;-70
2023/08/21 00:34:26;;;;;;;1.20;0.60;;;;;;;;;;5126371;27;40100;-70
2023/08/21 00:36:54;;;;;;;1.35;0.70;;;;;;;;;;5126165;27;41133;-70
2023/08/21 00:39:24;;;;;;;2.22;0.80;;;;;;;;;;5108909;28;40798;-70
2023/08/21 00:41:52;;;;;;;1.10;0.65;;;;;;;;;;5089598;28;39266;-69
2023/08/21 00:44:20;;;;;;;1.75;0.85;;;;;;;;;;5105305;28;40212;-69
2023/08/21 00:46:49;;;;;;;0.93;0.57;;;;;;;;;;5088805;28;41057;-69
2023/08/21 00:49:17;;;;;;;0.85;0.50;;;;;;;;;;5089972;28;41795;-70
2023/08/21 00:51:45;;;;;;;1.02;0.70;;;;;;;;;;5091454;28;42215;-70
2023/08/21 00:54:13;;;;;;;1.15;0.55;;;;;;;;;;5126753;27;38976;-70
2023/08/21 00:56:42;;;;;;;1.13;0.55;;;;;;;;;;5110209;28;41795;-70
2023/08/21 00:59:10;;;;;;;2.10;0.50;;;;;;;;;;5109532;28;41819;-70
2023/08/21 01:01:38;;;;;;;1.23;0.52;;;;;;;;;;5104807;28;38695;-70
2023/08/21 01:04:06;;;;;;;0.80;0.40;;;;;;;;;;5090295;28;42388;-70
2023/08/21 01:06:34;;;;;;;1.10;0.50;;;;;;;;;;5089229;28;43120;-70
2023/08/21 01:09:05;;;;;;;1.35;0.60;;;;;;;;;;5090006;28;42673;-70
2023/08/21 01:11:35;;;;;;;0.80;0.45;;;;;;;;;;5089829;28;41748;-70
2023/08/21 01:14:07;;;;;;;0.60;0.40;;;;;;;;;;5089721;28;39986;-70
2023/08/21 01:16:35;;;;;;;1.33;0.57;;;;;;;;;;5087934;28;40174;-70
2023/08/21 01:19:03;;;;;;;1.23;0.50;;;;;;;;;;5089358;28;41806;-70
2023/08/21 01:21:31;;;;;;;0.90;0.40;;;;;;;;;;5090833;28;41913;-69
2023/08/21 01:24:01;;;;;;;1.52;0.50;;;;;;;;;;5125470;27;41606;-70
2023/08/21 01:26:29;;;;;;;0.82;0.60;;;;;;;;;;5108883;28;42295;-70
2023/08/21 01:28:57;;;;;;;1.38;0.45;;;;;;;;;;5110798;28;40188;-70
2023/08/21 01:31:25;;;;;;;1.35;0.47;;;;;;;;;;5110047;27;42611;-70
2023/08/21 01:33:56;;;;;;;1.13;0.50;;;;;;;;;;5107930;28;40235;-70
2023/08/21 01:36:24;;;;;;;0.63;0.60;;;;;;;;;;5125377;27;39675;-70
2023/08/21 01:38:52;;;;;;;0.47;0.40;;;;;;;;;;5108584;28;41944;-70
2023/08/21 01:41:22;;;;;;;1.55;0.60;;;;;;;;;;5108947;28;41297;-70
2023/08/21 01:43:50;;;;;;;0.47;0.47;;;;;;;;;;5109649;28;42470;-70
2023/08/21 01:46:18;;;;;;;0.73;0.30;;;;;;;;;;5106959;28;42107;-69
2023/08/21 01:48:46;;;;;;;1.25;0.50;;;;;;;;;;5107617;28;39693;-70
2023/08/21 01:51:14;;;;;;;1.95;0.80;;;;;;;;;;5110489;28;41692;-70
2023/08/21 01:53:42;;;;;;;2.17;0.68;;;;;;;;;;5109313;28;40455;-70
2023/08/21 01:56:10;;;;;;;1.00;0.60;;;;;;;;;;5109292;28;41225;-70
2023/08/21 01:58:39;;;;;;;1.08;0.50;;;;;;;;;;5107501;28;41751;-69
2023/08/21 02:01:07;;;;;;;0.82;0.60;;;;;;;;;;5109315;28;40319;-69
2023/08/21 02:03:35;;;;;;;1.45;0.90;;;;;;;;;;5109129;28;41244;-70
2023/08/21 02:06:04;;;;;;;0.55;0.40;;;;;;;;;;5125296;27;40763;-69
2023/08/21 02:08:34;;;;;;;0.50;0.50;;;;;;;;;;5106350;28;38736;-70
2023/08/21 02:11:02;;;;;;;0.70;0.40;;;;;;;;;;5124943;27;40800;-69
2023/08/21 02:13:30;;;;;;;2.50;0.68;;;;;;;;;;5109204;27;33442;-70
2023/08/21 02:15:59;;;;;;;1.08;0.50;;;;;;;;;;5124507;27;40359;-70
2023/08/21 02:18:27;;;;;;;1.70;0.55;;;;;;;;;;5106787;28;40603;-70
2023/08/21 02:20:55;;;;;;;1.27;0.60;;;;;;;;;;5108162;28;39959;-70
2023/08/21 02:23:24;;;;;;;0.57;0.38;;;;;;;;;;5107774;28;42297;-70
2023/08/21 02:25:52;;;;;;;0.90;0.45;;;;;;;;;;5107644;28;40531;-69
2023/08/21 02:28:20;;;;;;;1.38;0.50;;;;;;;;;;5109353;28;40372;-70
2023/08/21 02:30:48;;;;;;;0.70;0.50;;;;;;;;;;5108373;27;41671;-69
2023/08/21 02:33:18;;;;;;;0.30;0.30;;;;;;;;;;5109065;27;41851;-70
2023/08/21 02:35:46;;;;;;;1.70;0.57;;;;;;;;;;5108150;27;42332;-70
2023/08/21 02:38:13;;;;;;;0.95;0.50;;;;;;;;;;5108599;28;41869;-69
2023/08/21 02:40:42;;;;;;;1.00;0.47;;;;;;;;;;5108429;28;40152;-70
2023/08/21 02:43:10;;;;;;;1.20;0.50;;;;;;;;;;5109476;27;41779;-69
2023/08/21 02:45:38;;;;;;;1.17;0.50;;;;;;;;;;5107724;27;42985;-69
2023/08/21 02:48:06;;;;;;;0.95;0.50;;;;;;;;;;5124815;27;39195;-69
2023/08/21 02:50:35;;;;;;;0.60;0.50;;;;;;;;;;5122956;27;41624;-70
2023/08/21 02:53:04;;;;;;;1.90;0.55;;;;;;;;;;5109091;28;43177;-70
2023/08/21 02:55:32;;;;;;;0.88;0.50;;;;;;;;;;5093704;28;41137;-70
2023/08/21 02:58:00;;;;;;;0.60;0.40;;;;;;;;;;5086262;28;40745;-69
2023/08/21 03:00:28;;;;;;;0.40;0.38;;;;;;;;;;5087192;28;40463;-69
2023/08/21 03:02:57;;;;;;;0.60;0.30;;;;;;;;;;5088473;28;42163;-69
2023/08/21 03:05:26;;;;;;;0.88;0.40;;;;;;;;;;5086575;28;42138;-70
2023/08/21 03:07:55;;;;;;;0.47;0.40;;;;;;;;;;5088580;28;40458;-70
2023/08/21 03:10:23;;;;;;;1.52;0.63;;;;;;;;;;5086428;28;42683;-70
2023/08/21 03:12:51;;;;;;;1.02;0.50;;;;;;;;;;5087538;28;43118;-69
2023/08/21 03:15:20;;;;;;;2.03;0.68;;;;;;;;;;5086638;28;39056;-70
2023/08/21 03:17:48;;;;;;;0.52;0.45;;;;;;;;;;5097067;28;42542;-69
2023/08/21 03:20:17;;;;;;;1.13;0.50;;;;;;;;;;5105967;28;41776;-69
2023/08/21 03:22:45;;;;;;;0.60;0.57;;;;;;;;;;5106066;28;40610;-69
2023/08/21 03:25:15;;;;;;;0.70;0.50;;;;;;;;;;5106258;28;40832;-70
2023/08/21 03:27:44;;;;;;;0.77;0.47;;;;;;;;;;5107207;28;41984;-70
2023/08/21 03:30:14;;;;;;;0.65;0.47;;;;;;;;;;5108003;27;42623;-69
2023/08/21 03:32:43;;;;;;;0.50;0.38;;;;;;;;;;5107505;28;42798;-69
2023/08/21 03:35:11;;;;;;;1.08;0.47;;;;;;;;;;5106306;28;40144;-70
2023/08/21 03:37:40;;;;;;;0.40;0.30;;;;;;;;;;5106057;28;40259;-70
2023/08/21 03:40:12;;;;;;;0.30;0.30;;;;;;;;;;5106271;28;40537;-70
2023/08/21 03:42:43;;;;;;;0.82;0.30;;;;;;;;;;5106527;28;41703;-70
2023/08/21 03:45:11;;;;;;;0.77;0.40;;;;;;;;;;5111815;27;42135;-69
2023/08/21 03:47:39;;;;;;;0.95;0.32;;;;;;;;;;5112155;27;40351;-70
2023/08/21 03:50:15;;;;;;;0.40;0.40;;;;;;;;;;5106041;28;41488;-70
2023/08/21 03:52:43;;;;;;;0.75;0.55;;;;;;;;;;5106723;27;41944;-70
2023/08/21 03:55:11;;;;;;;0.30;0.30;;;;;;;;;;5105821;27;39690;-70
2023/08/21 03:57:39;;;;;;;0.40;0.30;;;;;;;;;;5107285;27;42060;-70
2023/08/21 04:00:09;;;;;;;0.75;0.30;;;;;;;;;;5108032;28;42007;-70
2023/08/21 04:02:43;;;;;;;0.50;0.40;;;;;;;;;;5108552;27;41526;-70
2023/08/21 04:05:11;;;;;;;0.70;0.40;;;;;;;;;;5127101;27;40716;-70
2023/08/21 04:07:39;;;;;;;1.10;0.40;;;;;;;;;;5127801;27;41067;-70
2023/08/21 04:10:08;;;;;;;0.38;0.30;;;;;;;;;;5126406;27;40273;-69
2023/08/21 04:12:36;;;;;;;0.60;0.45;;;;;;;;;;5127777;27;41693;-70
2023/08/21 04:15:06;;;;;;;0.65;0.45;;;;;;;;;;5127672;27;41019;-70
2023/08/21 04:17:35;;;;;;;1.58;0.38;;;;;;;;;;5116918;27;41556;-70
2023/08/21 04:20:03;;;;;;;1.65;0.40;;;;;;;;;;5107789;27;42178;-70
2023/08/21 04:22:31;;;;;;;0.47;0.30;;;;;;;;;;5104974;27;39159;-70
2023/08/21 04:25:00;;;;;;;1.25;0.55;;;;;;;;;;5107670;28;42005;-70
2023/08/21 04:27:29;;;;;;;0.45;0.32;;;;;;;;;;5106974;28;40683;-70
2023/08/21 04:29:57;;;;;;;1.13;0.52;;;;;;;;;;5105680;27;41100;-70
2023/08/21 04:32:25;;;;;;;0.63;0.40;;;;;;;;;;5105703;27;40661;-69
2023/08/21 04:34:54;;;;;;;0.30;0.30;;;;;;;;;;5110252;27;39252;-69
2023/08/21 04:37:22;;;;;;;0.38;0.30;;;;;;;;;;5111136;27;43897;-70
2023/08/21 04:39:51;;;;;;;0.90;0.38;;;;;;;;;;5115986;27;40986;-69
2023/08/21 04:42:19;;;;;;;0.52;0.38;;;;;;;;;;5108456;27;40225;-69
2023/08/21 04:44:48;;;;;;;1.20;0.32;;;;;;;;;;5111138;27;41247;-70
2023/08/21 04:47:21;;;;;;;1.05;0.45;;;;;;;;;;5111341;27;38987;-71
2023/08/21 04:49:51;;;;;;;4.28;1.42;;;;;;;;;;5105852;27;40996;-71
2023/08/21 04:52:20;;;;;;;5.03;1.23;;;;;;;;;;5105116;27;40445;-68
2023/08/21 04:54:48;;;;;;;30.33;2.25;;;;;;;;;;5104306;28;39099;-67
2023/08/21 04:57:17;;;;;;;7.55;1.30;;;;;;;;;;5109051;27;41685;-66
2023/08/21 04:59:45;;;;;;;10.75;1.42;;;;;;;;;;5110045;28;42069;-64
2023/08/21 05:02:12;;;;;;;8.13;1.75;;;;;;;;;;5103600;28;39076;-64
2023/08/21 05:04:41;;;;;;;7.47;1.55;;;;;;;;;;5107648;28;40387;-64
2023/08/21 05:07:09;;;;;;;11.20;2.10;;;;;;;;;;5109054;28;41483;-69
2023/08/21 05:09:39;;;;;;;8.52;1.65;;;;;;;;;;5125330;27;41012;-68
2023/08/21 05:12:09;;;;;;;9.10;1.80;;;;;;;;;;5108200;28;41816;-68
2023/08/21 05:14:37;;;;;;;16.33;1.65;;;;;;;;;;5107794;28;39886;-69
2023/08/21 05:17:05;;;;;;;13.27;2.03;;;;;;;;;;5107920;28;40445;-67
2023/08/21 05:19:33;;;;;;;10.82;2.05;;;;;;;;;;5104062;27;41948;-67
2023/08/21 05:22:01;;;;;;;13.30;2.20;;;;;;;;;;5109375;28;40542;-66
2023/08/21 05:24:31;;;;;;;13.00;1.90;;;;;;;;;;5108541;28;40356;-66
2023/08/21 05:27:05;;;;;;;11.95;1.98;;;;;;;;;;5107921;28;41021;-67
2023/08/21 05:29:34;;;;;;;8.75;2.30;;;;;;;;;;5108095;28;40175;-68
2023/08/21 05:32:02;;;;;;;10.68;1.70;;;;;;;;;;5108425;28;42526;-67
2023/08/21 05:34:30;;;;;;;8.50;2.13;;;;;;;;;;5107585;28;38986;-67
2023/08/21 05:36:58;;;;;;;11.45;2.20;;;;;;;;;;5110321;27;42726;-68
2023/08/21 05:39:26;;;;;;;6.20;2.08;;;;;;;;;;5108927;28;42770;-68
2023/08/21 05:41:54;;;;;;;9.80;2.95;;;;;;;;;;5110118;28;41041;-68
2023/08/21 05:44:23;;;;;;;7.05;2.05;;;;;;;;;;5108283;28;40302;-68
2023/08/21 05:46:52;;;;;;;6.63;1.80;;;;;;;;;;5107748;27;40440;-69
2023/08/21 05:49:20;;;;;;;7.28;1.63;;;;;;;;;;5108071;28;38878;-69
2023/08/21 05:51:48;;;;;;;6.10;2.03;;;;;;;;;;5108505;28;40122;-68
2023/08/21 05:54:16;;;;;;;7.05;1.60;;;;;;;;;;5108535;28;40417;-68
2023/08/21 05:56:46;;;;;;;8.57;2.13;;;;;;;;;;5124667;27;40427;-68
2023/08/21 05:59:18;;;;;;;2.10;1.23;;;;;;;;;;5109878;27;43706;-68
2023/08/21 06:01:47;;;;;;;3.58;1.60;;;;;;;;;;5105970;28;39197;-67
2023/08/21 06:04:15;;;;;;;4.97;1.80;;;;;;;;;;5109713;27;41085;-68
2023/08/21 06:06:51;;;;;;;4.05;2.17;;;;;;;;;;5099348;27;41465;-68
2023/08/21 06:09:20;;;;;;;3.67;1.52;;;;;;;;;;5120402;27;39502;-68
2023/08/21 06:11:48;;;;;;;5.32;1.60;;;;;;;;;;5107702;28;40996;-68
2023/08/21 06:14:16;;;;;;;12.77;1.90;;;;;;;;;;5107487;28;41181;-68
2023/08/21 06:16:45;;;;;;;8.40;1.77;;;;;;;;;;5106578;28;41478;-68
2023/08/21 06:19:14;;;;;;;11.43;1.73;;;;;;;;;;5108291;28;43161;-68
2023/08/21 06:21:42;;;;;;;6.35;2.42;;;;;;;;;;5107845;28;41065;-68
2023/08/21 06:24:10;;;;;;;6.05;1.60;;;;;;;;;;5116481;27;41232;-68
2023/08/21 06:26:38;;;;;;;11.13;2.85;;;;;;;;;;5110851;27;40549;-68
2023/08/21 06:29:06;;;;;;;8.35;2.22;;;;;;;;;;5106151;28;38923;-68
2023/08/21 06:31:34;;;;;;;8.23;2.60;;;;;;;;;;5107959;28;41274;-68
2023/08/21 06:34:02;;;;;;;19.10;3.75;;;;;;;;;;5111041;27;42613;-68
2023/08/21 06:36:32;;;;;;;7.55;2.53;;;;;;;;;;5110858;27;42389;-67
2023/08/21 06:39:01;;;;;;;13.40;2.72;;;;;;;;;;5108280;28;42580;-68
2023/08/21 06:41:29;;;;;;;10.02;2.65;;;;;;;;;;5086580;28;39088;-67
2023/08/21 06:43:57;;;;;;;10.82;2.78;;;;;;;;;;5093614;28;41916;-67
2023/08/21 06:46:27;;;;;;;16.20;2.92;;;;;;;;;;5105846;28;41154;-67
2023/08/21 06:48:55;;;;;;;15.23;3.30;;;;;;;;;;5107483;27;39166;-67
2023/08/21 06:51:24;;;;;;;6.40;2.85;;;;;;;;;;5108033;27;42151;-67
2023/08/21 06:53:53;;;;;;;7.88;2.53;;;;;;;;;;5108466;27;41988;-68
2023/08/21 06:56:21;;;;;;;11.85;2.75;;;;;;;;;;5108499;27;40392;-66
2023/08/21 06:58:49;;;;;;;18.17;3.17;;;;;;;;;;5107161;27;41676;-64
2023/08/21 07:01:17;;;;;;;9.60;2.92;;;;;;;;;;5108199;27;40663;-66
2023/08/21 07:03:45;;;;;;;7.55;2.58;;;;;;;;;;5107642;27;40553;-66
2023/08/21 07:06:13;;;;;;;13.25;2.50;;;;;;;;;;5107908;27;42474;-66
2023/08/21 07:08:42;;;;;;;16.00;3.17;;;;;;;;;;5119396;27;41208;-66
2023/08/21 07:11:12;;;;;;;15.65;2.83;;;;;;;;;;5107584;27;41710;-66
2023/08/21 07:13:42;;;;;;;14.02;3.50;;;;;;;;;;5107525;27;43031;-66
2023/08/21 07:16:10;;;;;;;9.80;2.40;;;;;;;;;;5108149;27;40883;-67
2023/08/21 07:18:38;;;;;;;11.50;2.55;;;;;;;;;;5106076;27;40092;-66
2023/08/21 07:21:06;;;;;;;13.70;2.53;;;;;;;;;;5107426;27;40455;-66
2023/08/21 07:23:53;;;;;;;22.55;2.85;;;;;;;;;;5107520;27;42454;-66
2023/08/21 07:26:23;;;;;;;8.32;2.33;;;;;;;;;;5106720;27;41597;-66
2023/08/21 07:28:52;;;;;;;13.52;3.08;;;;;;;;;;5107437;27;39518;-66
2023/08/21 07:31:20;;;;;;;20.05;3.00;;;;;;;;;;5107554;27;42171;-66
2023/08/21 07:33:48;;;;;;;9.90;2.45;;;;;;;;;;5106329;27;41522;-66
2023/08/21 07:36:17;;;;;;;18.85;2.50;;;;;;;;;;5108318;27;40617;-67
2023/08/21 07:38:45;;;;;;;42.63;3.53;;;;;;;;;;5106561;27;42624;-67
2023/08/21 07:41:14;;;;;;;17.45;2.50;;;;;;;;;;5109635;27;42109;-68
2023/08/21 07:43:43;;;;;;;13.98;2.55;;;;;;;;;;5107405;27;41616;-67
2023/08/21 07:46:13;;;;;;;10.18;2.75;;;;;;;;;;5107299;27;43441;-66
2023/08/21 07:48:42;;;;;;;23.20;3.40;;;;;;;;;;5107596;27;41127;-67
2023/08/21 07:51:10;;;;;;;15.35;2.78;;;;;;;;;;5108742;27;42037;-67
2023/08/21 07:53:38;;;;;;;21.42;2.30;;;;;;;;;;5126787;27;41676;-65
2023/08/21 07:56:06;;;;;;;18.10;2.55;;;;;;;;;;5128029;27;40365;-70
2023/08/21 07:58:34;;;;;;;16.85;2.60;;;;;;;;;;5127554;27;41498;-67
2023/08/21 08:01:04;;;;;;;8.80;2.03;;;;;;;;;;5122794;27;42064;-68
2023/08/21 08:03:32;;;;;;;8.60;1.90;;;;;;;;;;5107046;27;40096;-67
2023/08/21 08:06:00;;;;;;;7.07;2.05;;;;;;;;;;5087050;28;42399;-67
2023/08/21 08:08:29;;;;;;;5.13;1.70;;;;;;;;;;5086930;28;41030;-67
2023/08/21 08:11:00;;;;;;;6.18;1.73;;;;;;;;;;5107405;27;41682;-67
2023/08/21 08:13:28;;;;;;;11.68;2.65;;;;;;;;;;5107005;27;42655;-65
2023/08/21 08:15:56;;;;;;;7.82;2.25;;;;;;;;;;5106018;27;41543;-67
2023/08/21 08:18:26;;;;;;;8.25;2.50;;;;;;;;;;5106585;27;42725;-64
2023/08/21 08:20:54;;;;;;;11.57;2.28;;;;;;;;;;5098627;28;42080;-64
2023/08/21 08:23:23;;;;;;;10.50;2.10;;;;;;;;;;5106325;27;39748;-65
2023/08/21 08:25:51;;;;;;;9.57;2.25;;;;;;;;;;5107030;27;41300;-65
2023/08/21 08:28:19;;;;;;;6.97;2.10;;;;;;;;;;5106664;27;41329;-64
2023/08/21 08:30:54;;;;;;;6.10;1.70;;;;;;;;;;5108449;27;41357;-65
2023/08/21 08:33:23;;;;;;;6.50;1.50;;;;;;;;;;5110946;27;41722;-65
2023/08/21 08:35:52;;;;;;;6.38;2.05;;;;;;;;;;5109601;27;40271;-65
2023/08/21 08:38:20;;;;;;;8.32;1.80;;;;;;;;;;5110162;27;41647;-65
2023/08/21 08:40:48;;;;;;;9.05;2.08;;;;;;;;;;5110880;27;42222;-65
2023/08/21 08:43:16;;;;;;;11.30;2.30;;;;;;;;;;5110004;27;40257;-64
2023/08/21 08:45:45;;;;;;;11.13;2.03;;;;;;;;;;5110281;27;42610;-65
2023/08/21 08:48:16;;;;;;;13.82;1.63;;;;;;;;;;5110547;27;40408;-66
2023/08/21 08:50:43;;;;;;;8.52;1.92;;;;;;;;;;5118138;27;42642;-66
2023/08/21 08:53:13;;;;;;;10.63;1.70;;;;;;;;;;5121422;27;41997;-65
2023/08/21 08:55:44;;;;;;;11.60;1.50;;;;;;;;;;5115452;27;40307;-65
2023/08/21 08:58:12;;;;;;;6.60;1.40;;;;;;;;;;5123449;27;41632;-65
2023/08/21 09:00:41;;;;;;;8.07;1.70;;;;;;;;;;5126478;27;42115;-65
2023/08/21 09:03:10;;;;;;;5.03;1.20;;;;;;;;;;5129481;27;41274;-65
2023/08/21 09:05:38;;;;;;;10.02;1.50;;;;;;;;;;5127865;27;42653;-66
2023/08/21 09:08:14;;;;;;;7.38;1.40;;;;;;;;;;5129447;27;43462;-65
2023/08/21 09:10:42;;;;;;;12.05;1.80;;;;;;;;;;5128143;27;42121;-65
2023/08/21 09:13:12;;;;;;;13.85;1.70;;;;;;;;;;5125677;27;42528;-65
2023/08/21 09:15:41;;;;;;;8.20;1.60;;;;;;;;;;5107394;27;41752;-65
2023/08/21 09:18:10;;;;;;;9.27;1.35;;;;;;;;;;5109187;27;41202;-65
2023/08/21 09:20:41;;;;;;;21.30;1.60;;;;;;;;;;5108966;27;41731;-65
2023/08/21 09:23:09;;;;;;;49.22;3.17;;;;;;;;;;5108630;27;41448;-65
2023/08/21 09:25:38;;;;;;;52.28;4.07;;;;;;;;;;5105817;27;42101;-66
2023/08/21 09:28:07;;;;;;;87.13;5.63;;;;;;;;;;5107985;27;42600;-64
2023/08/21 09:30:45;;;;;;;57.55;3.97;;;;;;;;;;5107470;27;40142;-64
2023/08/21 09:33:13;;;;;;;18.08;2.30;;;;;;;;;;5107944;27;42126;-64
2023/08/21 09:35:41;;;;;;;21.92;2.03;;;;;;;;;;5108124;27;40339;-64
2023/08/21 09:38:10;;;;;;;21.67;2.55;;;;;;;;;;5114996;27;41623;-63
2023/08/21 09:40:41;;;;;;;46.00;4.55;;;;;;;;;;5109164;27;42221;-64
2023/08/21 09:43:10;;;;;;;37.80;2.45;;;;;;;;;;5111273;27;39952;-64
2023/08/21 09:45:38;;;;;;;22.73;2.17;;;;;;;;;;5107990;27;42653;-63
2023/08/21 09:48:07;;;;;;;14.18;1.80;;;;;;;;;;5114964;27;43137;-63
2023/08/21 09:50:36;;;;;;;8.85;1.27;;;;;;;;;;5116954;27;41045;-66
2023/08/21 09:53:04;;;;;;;20.27;1.60;;;;;;;;;;5126694;27;41149;-66
2023/08/21 09:55:32;;;;;;;356.42;21.85;;;;;;;;;;5129891;27;40397;-67
2023/08/21 09:58:01;;;;;;;146.38;10.75;;;;;;;;;;5130209;27;41980;-65
2023/08/21 10:00:30;;;;;;;122.32;9.00;;;;;;;;;;5128385;27;41472;-67
2023/08/21 10:03:01;;;;;;;68.63;5.18;;;;;;;;;;5113834;27;39895;-67
2023/08/21 10:05:29;;;;;;;68.40;5.68;;;;;;;;;;5108916;27;42885;-67
2023/08/21 10:07:57;;;;;;;41.42;3.47;;;;;;;;;;5118345;27;42004;-66
2023/08/21 10:10:25;;;;;;;41.47;3.10;;;;;;;;;;5113128;27;40486;-67
2023/08/21 10:12:53;;;;;;;20.60;2.42;;;;;;;;;;5114622;27;42146;-67
2023/08/21 10:15:23;;;;;;;29.50;2.67;;;;;;;;;;5109597;27;42080;-66
2023/08/21 10:17:51;;;;;;;9.60;2.10;;;;;;;;;;5108762;27;41561;-66
2023/08/21 10:20:21;;;;;;;10.57;1.63;;;;;;;;;;5108916;27;41961;-66
2023/08/21 10:22:50;;;;;;;8.02;1.30;;;;;;;;;;5107638;27;40599;-66
2023/08/21 10:25:25;;;;;;;12.38;1.98;;;;;;;;;;5108347;27;40427;-67
2023/08/21 10:27:59;;;;;;;8.73;1.50;;;;;;;;;;5107625;27;42118;-67
2023/08/21 10:30:28;;;;;;;8.20;1.60;;;;;;;;;;5108404;27;41393;-68
2023/08/21 10:32:57;;;;;;;10.07;1.73;;;;;;;;;;5109061;27;42670;-67
2023/08/21 10:35:26;;;;;;;7.22;1.55;;;;;;;;;;5106867;27;42311;-67
2023/08/21 10:38:06;;;;;;;12.27;1.80;;;;;;;;;;5116994;27;40405;-67
2023/08/21 10:40:34;;;;;;;6.47;1.98;;;;;;;;;;5114747;27;43329;-67
2023/08/21 10:43:03;;;;;;;8.20;1.35;;;;;;;;;;5117974;27;41653;-67
2023/08/21 10:45:32;;;;;;;5.75;1.88;;;;;;;;;;5109533;27;41991;-67
2023/08/21 10:48:00;;;;;;;4.65;1.38;;;;;;;;;;5111108;27;41924;-67
2023/08/21 10:50:28;;;;;;;9.00;1.63;;;;;;;;;;5110672;27;41255;-67
2023/08/21 10:52:56;;;;;;;6.18;1.73;;;;;;;;;;5120237;27;42636;-67
2023/08/21 10:55:24;;;;;;;13.35;1.70;;;;;;;;;;5117042;27;43043;-67
2023/08/21 10:57:52;;;;;;;5.40;2.00;;;;;;;;;;5115595;27;40712;-68
2023/08/21 11:00:20;;;;;;;4.32;1.58;;;;;;;;;;5114779;27;42228;-68
2023/08/21 11:02:50;;;;;;;7.38;1.85;;;;;;;;;;5112709;27;40455;-75
2023/08/21 11:05:18;;;;;;;19.98;2.70;;;;;;;;;;5108509;27;41347;-69
2023/08/21 11:07:46;;;;;;;14.30;1.67;;;;;;;;;;5108370;27;42288;-72
2023/08/21 11:10:16;;;;;;;12.40;1.77;;;;;;;;;;5108254;27;40412;-72
2023/08/21 11:12:50;;;;;;;12.57;1.80;;;;;;;;;;5108052;27;42495;-72
2023/08/21 11:15:18;;;;;;;17.55;2.05;;;;;;;;;;5107475;27;41765;-70
2023/08/21 11:17:58;;;;;;;37.42;3.05;;;;;;;;;;5107571;27;40133;-70
2023/08/21 11:20:30;;;;;;;55.33;3.55;;;;;;;;;;5107917;27;42047;-71
2023/08/21 11:22:58;;;;;;;32.67;3.28;;;;;;;;;;5106925;27;41364;-70
2023/08/21 11:25:27;;;;;;;28.67;3.05;;;;;;;;;;5106556;27;42183;-71
2023/08/21 11:27:55;;;;;;;36.10;3.45;;;;;;;;;;5107873;27;42150;-67
2023/08/21 11:30:23;;;;;;;46.65;4.43;;;;;;;;;;5106123;27;41443;-69
2023/08/21 11:33:06;;;;;;;46.47;3.95;;;;;;;;;;5106782;27;41818;-68
2023/08/21 11:35:35;;;;;;;24.65;3.60;;;;;;;;;;5107386;27;43094;-68
2023/08/21 11:38:04;;;;;;;22.88;2.50;;;;;;;;;;5106728;27;40329;-68
2023/08/21 11:40:35;;;;;;;25.00;3.63;;;;;;;;;;5107110;27;41254;-67
2023/08/21 11:43:05;;;;;;;24.73;2.22;;;;;;;;;;5106644;27;42096;-67
2023/08/21 11:45:33;;;;;;;21.55;2.10;;;;;;;;;;5104890;27;43201;-68
2023/08/21 11:48:16;;;;;;;11.90;2.30;;;;;;;;;;5106121;27;42057;-68
2023/08/21 11:50:45;;;;;;;14.50;1.83;;;;;;;;;;5085825;28;40396;-68
2023/08/21 11:53:13;;;;;;;15.77;2.53;;;;;;;;;;5085293;28;42262;-67
2023/08/21 11:55:41;;;;;;;21.83;2.15;;;;;;;;;;5085342;28;41521;-67
2023/08/21 11:58:09;;;;;;;8.40;1.70;;;;;;;;;;5101797;27;40590;-68
2023/08/21 12:00:37;;;;;;;14.30;2.10;;;;;;;;;;5113980;27;40840;-67
2023/08/21 12:03:08;;;;;;;12.45;2.00;;;;;;;;;;5116473;27;41706;-68
2023/08/21 12:05:36;;;;;;;22.13;2.58;;;;;;;;;;5106527;27;40446;-67
2023/08/21 12:08:06;;;;;;;13.55;2.00;;;;;;;;;;5110376;27;42349;-67
2023/08/21 12:10:34;;;;;;;7.35;2.08;;;;;;;;;;5116514;27;43847;-67
2023/08/21 12:13:02;;;;;;;24.60;2.10;;;;;;;;;;5124855;27;42595;-68
2023/08/21 12:15:30;;;;;;;6.50;1.48;;;;;;;;;;5110731;27;41975;-68
2023/08/21 12:17:58;;;;;;;9.77;1.65;;;;;;;;;;5111178;27;40376;-67
2023/08/21 12:20:26;;;;;;;12.90;1.90;;;;;;;;;;5109628;27;41214;-68
2023/08/21 12:22:54;;;;;;;6.20;2.00;;;;;;;;;;5110305;27;41992;-68
2023/08/21 12:25:24;;;;;;;5.28;1.80;;;;;;;;;;5110531;27;39799;-68
2023/08/21 12:27:52;;;;;;;8.35;2.13;;;;;;;;;;5110301;27;42057;-68
2023/08/21 12:30:35;;;;;;;4.72;1.90;;;;;;;;;;5110350;27;40580;-68
2023/08/21 12:33:03;;;;;;;4.25;1.95;;;;;;;;;;5111276;27;41187;-69
2023/08/21 12:35:48;;;;;;;9.10;2.05;;;;;;;;;;5109774;27;42814;-68
2023/08/21 12:38:16;;;;;;;6.88;1.52;;;;;;;;;;5110610;27;39955;-68
2023/08/21 12:40:46;;;;;;;6.63;1.92;;;;;;;;;;5103446;27;41515;-67
2023/08/21 12:43:14;;;;;;;9.02;1.85;;;;;;;;;;5108750;27;42216;-68
2023/08/21 12:45:42;;;;;;;6.18;1.60;;;;;;;;;;5110402;27;40954;-68
2023/08/21 12:48:10;;;;;;;4.72;1.88;;;;;;;;;;5110034;27;41431;-68
2023/08/21 12:50:38;;;;;;;8.05;1.83;;;;;;;;;;5114175;27;32949;-68
2023/08/21 12:53:06;;;;;;;7.55;1.98;;;;;;;;;;5108559;27;41588;-67
2023/08/21 12:55:34;;;;;;;6.93;1.90;;;;;;;;;;5109204;27;42007;-74
2023/08/21 12:58:03;;;;;;;6.50;2.10;;;;;;;;;;5116246;27;41279;-74
2023/08/21 13:00:32;;;;;;;5.85;2.17;;;;;;;;;;5106330;27;42665;-74
2023/08/21 13:03:00;;;;;;;10.13;2.35;;;;;;;;;;5109103;27;43144;-74
2023/08/21 13:05:28;;;;;;;8.75;2.10;;;;;;;;;;5109733;27;40944;-72
2023/08/21 13:07:57;;;;;;;9.73;2.30;;;;;;;;;;5110086;27;42548;-74
2023/08/21 13:10:24;;;;;;;8.88;1.98;;;;;;;;;;5110544;27;42006;-74
2023/08/21 13:12:53;;;;;;;5.70;2.10;;;;;;;;;;5110167;27;41567;-73
2023/08/21 13:15:22;;;;;;;9.13;2.60;;;;;;;;;;5109591;27;43029;-73
2023/08/21 13:17:50;;;;;;;9.82;2.67;;;;;;;;;;5109542;27;39940;-73
2023/08/21 13:20:19;;;;;;;11.07;2.20;;;;;;;;;;5109752;27;42328;-72
2023/08/21 13:22:48;;;;;;;11.82;2.60;;;;;;;;;;5110904;27;42828;-72
2023/08/21 13:25:16;;;;;;;15.15;2.28;;;;;;;;;;5120284;27;41272;-72
2023/08/21 13:27:45;;;;;;;19.15;2.63;;;;;;;;;;5115393;27;20228;-73
2023/08/21 13:30:13;;;;;;;31.33;3.35;;;;;;;;;;5115535;27;42929;-75
2023/08/21 13:32:43;;;;;;;18.75;2.55;;;;;;;;;;5114478;27;41036;-75
2023/08/21 13:35:12;;;;;;;9.30;1.92;;;;;;;;;;5115257;27;41852;-76
2023/08/21 13:37:40;;;;;;;12.65;2.05;;;;;;;;;;5108293;27;40425;-76
2023/08/21 13:40:10;;;;;;;7.47;1.88;;;;;;;;;;5109390;27;41481;-75
2023/08/21 13:42:41;;;;;;;9.07;2.22;;;;;;;;;;5105496;28;43277;-75
2023/08/21 13:45:11;;;;;;;7.50;1.70;;;;;;;;;;5106583;28;41580;-76
2023/08/21 13:47:39;;;;;;;8.13;1.80;;;;;;;;;;5108519;27;41748;-75
2023/08/21 13:50:09;;;;;;;6.53;1.60;;;;;;;;;;5108966;27;42920;-75
2023/08/21 13:52:39;;;;;;;3.83;1.60;;;;;;;;;;5108171;27;40303;-74
2023/08/21 13:55:07;;;;;;;6.63;1.80;;;;;;;;;;5110155;27;42462;-75
2023/08/21 13:57:35;;;;;;;5.72;2.08;;;;;;;;;;5108907;27;40547;-74
2023/08/21 14:00:07;;;;;;;6.15;1.98;;;;;;;;;;5108602;27;42169;-69
2023/08/21 14:02:35;;;;;;;11.95;2.10;;;;;;;;;;5108894;27;42180;-71
2023/08/21 14:05:04;;;;;;;5.18;1.77;;;;;;;;;;5109339;27;40961;-72
2023/08/21 14:07:33;;;;;;;8.93;1.80;;;;;;;;;;5107984;27;42903;-72
2023/08/21 14:10:01;;;;;;;8.93;1.77;;;;;;;;;;5109494;27;42249;-72
2023/08/21 14:12:30;;;;;;;11.88;2.30;;;;;;;;;;5108594;27;40611;-70
2023/08/21 14:14:58;;;;;;;6.60;2.40;;;;;;;;;;5108129;27;42759;-71
2023/08/21 14:17:26;;;;;;;10.75;2.70;;;;;;;;;;5109019;27;41711;-72
2023/08/21 14:19:54;;;;;;;6.18;2.30;;;;;;;;;;5108516;27;42620;-71
2023/08/21 14:22:22;;;;;;;16.67;2.17;;;;;;;;;;5109245;27;42220;-72
2023/08/21 14:24:51;;;;;;;19.42;2.72;;;;;;;;;;5109233;27;40987;-72
2023/08/21 14:27:20;;;;;;;11.82;2.50;;;;;;;;;;5087774;28;41449;-71
2023/08/21 14:29:48;;;;;;;8.45;2.10;;;;;;;;;;5095076;28;42009;-70
2023/08/21 14:32:16;;;;;;;12.80;2.60;;;;;;;;;;5109417;27;40165;-70
2023/08/21 14:34:44;;;;;;;23.88;3.28;;;;;;;;;;5107857;27;41518;-71
2023/08/21 14:37:15;;;;;;;26.98;3.47;;;;;;;;;;5108818;27;42027;-70
2023/08/21 14:39:43;;;;;;;40.72;3.95;;;;;;;;;;5109622;27;41404;-70
2023/08/21 14:42:13;;;;;;;30.15;3.30;;;;;;;;;;5108037;27;43090;-69
2023/08/21 14:44:40;;;;;;;20.60;2.60;;;;;;;;;;5108119;27;40978;-71
2023/08/21 14:47:09;;;;;;;21.15;2.40;;;;;;;;;;5108912;27;41736;-70
2023/08/21 14:49:37;;;;;;;31.00;3.17;;;;;;;;;;5106979;27;43025;-69